1A9

Prattville - Grouby Field Airport

Prattville, Alabama, USA
METAR K1A9 170015Z AUTO 00000KT 10SM CLR 29/26 A2998 RMK AO2 T02890261
Observed Flight Rules
Jul-17 @ 00:15 UTC (8 minutes ago) Visual Flight Rules
Visibility Clouds
10 miles
  • Clear skies
Temperatures Readings
Current 29°C / 84°F
Dewpoint 26°C / 79°F
Humidity 84%
Altimeter 29.98" Hg
Pressure 1015 hPa
Elevation 69
METAR K1A9 170015Z AUTO 00000KT 10SM CLR 29/26 A2998 RMK AO2 T02890261
Observed Flight Rules
Jul-17 @ 00:15 UTC
(8 minutes ago)
VFR
Clouds
  • Clear skies
Temperature Dewpoint
29°C / 84°F 26°C / 79°F
Humidity Altimeter Pressure
84% 29.98" Hg 1015 hPa